sensor_id;sensor_type;location;lat;lon;timestamp;pressure;altitude;pressure_sealevel;temperature;humidity
26043;BME280;13818;52.156;5.382;2024-01-16T00:00:17;100611.06;;;1.34;100.00
26043;BME280;13818;52.156;5.382;2024-01-16T00:02:43;100611.16;;;1.26;100.00
26043;BME280;13818;52.156;5.382;2024-01-16T00:05:11;100608.41;;;1.38;100.00
26043;BME280;13818;52.156;5.382;2024-01-16T00:07:39;100614.44;;;1.45;100.00
26043;BME280;13818;52.156;5.382;2024-01-16T00:10:07;100603.91;;;1.48;100.00
26043;BME280;13818;52.156;5.382;2024-01-16T00:12:34;100619.44;;;1.68;100.00
26043;BME280;13818;52.156;5.382;2024-01-16T00:15:00;100621.28;;;1.61;100.00
26043;BME280;13818;52.156;5.382;2024-01-16T00:17:27;100623.91;;;1.61;100.00
26043;BME280;13818;52.156;5.382;2024-01-16T00:19:53;100630.03;;;1.60;100.00
26043;BME280;13818;52.156;5.382;2024-01-16T00:22:21;100649.34;;;1.55;100.00
26043;BME280;13818;52.156;5.382;2024-01-16T00:24:48;100652.19;;;1.38;100.00
26043;BME280;13818;52.156;5.382;2024-01-16T00:27:14;100655.59;;;1.44;100.00
26043;BME280;13818;52.156;5.382;2024-01-16T00:29:40;100636.59;;;1.21;100.00
26043;BME280;13818;52.156;5.382;2024-01-16T00:32:07;100632.22;;;1.23;100.00
26043;BME280;13818;52.156;5.382;2024-01-16T00:34:33;100628.63;;;1.32;100.00
26043;BME280;13818;52.156;5.382;2024-01-16T00:37:00;100618.91;;;1.38;100.00
26043;BME280;13818;52.156;5.382;2024-01-16T00:39:28;100610.19;;;1.36;100.00
26043;BME280;13818;52.156;5.382;2024-01-16T00:41:54;100617.94;;;1.47;100.00
26043;BME280;13818;52.156;5.382;2024-01-16T00:44:21;100616.16;;;1.51;100.00
26043;BME280;13818;52.156;5.382;2024-01-16T00:46:47;100616.06;;;1.57;100.00
26043;BME280;13818;52.156;5.382;2024-01-16T00:49:14;100611.75;;;1.51;100.00
26043;BME280;13818;52.156;5.382;2024-01-16T00:51:40;100625.81;;;1.47;100.00
26043;BME280;13818;52.156;5.382;2024-01-16T00:54:07;100619.56;;;1.59;100.00
26043;BME280;13818;52.156;5.382;2024-01-16T00:56:35;100627.25;;;1.73;100.00
26043;BME280;13818;52.156;5.382;2024-01-16T00:59:01;100642.06;;;1.78;100.00
26043;BME280;13818;52.156;5.382;2024-01-16T01:01:28;100634.41;;;1.60;100.00
26043;BME280;13818;52.156;5.382;2024-01-16T01:03:54;100629.16;;;1.60;100.00
26043;BME280;13818;52.156;5.382;2024-01-16T01:06:21;100631.59;;;1.75;100.00
26043;BME280;13818;52.156;5.382;2024-01-16T01:08:47;100642.84;;;1.85;100.00
26043;BME280;13818;52.156;5.382;2024-01-16T01:11:14;100637.78;;;1.73;100.00
26043;BME280;13818;52.156;5.382;2024-01-16T01:13:42;100642.16;;;1.71;100.00
26043;BME280;13818;52.156;5.382;2024-01-16T01:16:08;100637.91;;;1.60;100.00
26043;BME280;13818;52.156;5.382;2024-01-16T01:18:34;100642.38;;;1.55;100.00
26043;BME280;13818;52.156;5.382;2024-01-16T01:21:01;100639.00;;;1.44;100.00
26043;BME280;13818;52.156;5.382;2024-01-16T01:23:28;100640.88;;;1.33;100.00
26043;BME280;13818;52.156;5.382;2024-01-16T01:25:54;100641.53;;;1.49;100.00
26043;BME280;13818;52.156;5.382;2024-01-16T01:28:21;100636.31;;;1.50;100.00
26043;BME280;13818;52.156;5.382;2024-01-16T01:30:49;100637.22;;;1.44;100.00
26043;BME280;13818;52.156;5.382;2024-01-16T01:33:15;100638.09;;;1.43;100.00
26043;BME280;13818;52.156;5.382;2024-01-16T01:35:42;100640.78;;;1.40;100.00
26043;BME280;13818;52.156;5.382;2024-01-16T01:38:08;100626.78;;;1.41;100.00
26043;BME280;13818;52.156;5.382;2024-01-16T01:40:35;100635.56;;;1.37;100.00
26043;BME280;13818;52.156;5.382;2024-01-16T01:43:16;100629.34;;;1.44;100.00
26043;BME280;13818;52.156;5.382;2024-01-16T01:45:43;100634.59;;;1.48;100.00
26043;BME280;13818;52.156;5.382;2024-01-16T01:48:11;100644.25;;;1.42;100.00
26043;BME280;13818;52.156;5.382;2024-01-16T01:50:38;100666.97;;;1.46;100.00
26043;BME280;13818;52.156;5.382;2024-01-16T01:53:04;100687.06;;;1.51;100.00
26043;BME280;13818;52.156;5.382;2024-01-16T01:55:31;100687.13;;;1.44;100.00
26043;BME280;13818;52.156;5.382;2024-01-16T01:57:57;100696.88;;;1.36;100.00
26043;BME280;13818;52.156;5.382;2024-01-16T02:00:25;100690.84;;;1.26;100.00
26043;BME280;13818;52.156;5.382;2024-01-16T02:02:51;100691.75;;;1.21;100.00
26043;BME280;13818;52.156;5.382;2024-01-16T02:05:19;100676.91;;;1.18;100.00
26043;BME280;13818;52.156;5.382;2024-01-16T02:07:46;100672.66;;;1.06;100.00
26043;BME280;13818;52.156;5.382;2024-01-16T02:10:13;100681.34;;;1.11;100.00
26043;BME280;13818;52.156;5.382;2024-01-16T02:12:40;100683.09;;;1.12;100.00
26043;BME280;13818;52.156;5.382;2024-01-16T02:15:07;100677.81;;;1.16;100.00
26043;BME280;13818;52.156;5.382;2024-01-16T02:17:33;100671.72;;;1.13;100.00
26043;BME280;13818;52.156;5.382;2024-01-16T02:19:59;100653.41;;;1.07;100.00
26043;BME280;13818;52.156;5.382;2024-01-16T02:22:28;100648.00;;;1.18;100.00
26043;BME280;13818;52.156;5.382;2024-01-16T02:24:59;100659.19;;;1.37;100.00
26043;BME280;13818;52.156;5.382;2024-01-16T02:27:26;100650.28;;;1.51;100.00
26043;BME280;13818;52.156;5.382;2024-01-16T02:29:52;100648.59;;;1.45;100.00
26043;BME280;13818;52.156;5.382;2024-01-16T02:32:19;100652.91;;;1.51;100.00
26043;BME280;13818;52.156;5.382;2024-01-16T02:34:46;100656.34;;;1.57;100.00
26043;BME280;13818;52.156;5.382;2024-01-16T02:37:12;100659.13;;;1.43;100.00
26043;BME280;13818;52.156;5.382;2024-01-16T02:39:39;100655.63;;;1.43;100.00
26043;BME280;13818;52.156;5.382;2024-01-16T02:42:07;100656.59;;;1.34;100.00
26043;BME280;13818;52.156;5.382;2024-01-16T02:44:33;100654.88;;;1.32;100.00
26043;BME280;13818;52.156;5.382;2024-01-16T02:47:00;100653.19;;;1.24;100.00
26043;BME280;13818;52.156;5.382;2024-01-16T02:49:27;100667.00;;;1.43;100.00
26043;BME280;13818;52.156;5.382;2024-01-16T02:51:53;100657.38;;;1.42;100.00
26043;BME280;13818;52.156;5.382;2024-01-16T02:54:21;100659.97;;;1.45;100.00
26043;BME280;13818;52.156;5.382;2024-01-16T02:56:47;100649.44;;;1.47;100.00
26043;BME280;13818;52.156;5.382;2024-01-16T02:59:15;100654.69;;;1.49;100.00
26043;BME280;13818;52.156;5.382;2024-01-16T03:01:42;100655.44;;;1.58;100.00
26043;BME280;13818;52.156;5.382;2024-01-16T03:04:08;100645.81;;;1.57;100.00
26043;BME280;13818;52.156;5.382;2024-01-16T03:06:35;100650.22;;;1.57;100.00
26043;BME280;13818;52.156;5.382;2024-01-16T03:09:01;100650.34;;;1.48;100.00
26043;BME280;13818;52.156;5.382;2024-01-16T03:11:28;100653.78;;;1.51;100.00
26043;BME280;13818;52.156;5.382;2024-01-16T03:13:54;100657.28;;;1.52;100.00
26043;BME280;13818;52.156;5.382;2024-01-16T03:16:22;100669.63;;;1.46;100.00
26043;BME280;13818;52.156;5.382;2024-01-16T03:18:48;100674.19;;;1.29;100.00
26043;BME280;13818;52.156;5.382;2024-01-16T03:21:15;100671.59;;;1.23;100.00
26043;BME280;13818;52.156;5.382;2024-01-16T03:23:41;100675.09;;;1.23;100.00
26043;BME280;13818;52.156;5.382;2024-01-16T03:26:12;100668.16;;;1.18;100.00
26043;BME280;13818;52.156;5.382;2024-01-16T03:28:38;100675.09;;;1.23;100.00
26043;BME280;13818;52.156;5.382;2024-01-16T03:31:05;100664.53;;;1.29;100.00
26043;BME280;13818;52.156;5.382;2024-01-16T03:33:33;100667.25;;;1.22;100.00
26043;BME280;13818;52.156;5.382;2024-01-16T03:36:00;100666.31;;;1.26;100.00
26043;BME280;13818;52.156;5.382;2024-01-16T03:38:28;100675.88;;;1.33;100.00
26043;BME280;13818;52.156;5.382;2024-01-16T03:40:54;100674.09;;;1.37;100.00
26043;BME280;13818;52.156;5.382;2024-01-16T03:43:20;100673.06;;;1.49;100.00
26043;BME280;13818;52.156;5.382;2024-01-16T03:45:47;100675.66;;;1.53;100.00
26043;BME280;13818;52.156;5.382;2024-01-16T03:48:13;100657.97;;;1.69;100.00
26043;BME280;13818;52.156;5.382;2024-01-16T03:50:41;100667.47;;;1.79;100.00
26043;BME280;13818;52.156;5.382;2024-01-16T03:53:09;100663.97;;;1.77;100.00
26043;BME280;13818;52.156;5.382;2024-01-16T03:55:35;100659.47;;;1.87;100.00
26043;BME280;13818;52.156;5.382;2024-01-16T03:58:02;100655.06;;;1.88;100.00
26043;BME280;13818;52.156;5.382;2024-01-16T04:00:28;100661.25;;;1.84;100.00
26043;BME280;13818;52.156;5.382;2024-01-16T04:02:55;100669.16;;;1.84;100.00
26043;BME280;13818;52.156;5.382;2024-01-16T04:05:21;100655.06;;;1.91;100.00
26043;BME280;13818;52.156;5.382;2024-01-16T04:07:49;100661.25;;;1.85;100.00
26043;BME280;13818;52.156;5.382;2024-01-16T04:10:16;100657.84;;;1.77;100.00
26043;BME280;13818;52.156;5.382;2024-01-16T04:12:42;100644.81;;;1.69;100.00
26043;BME280;13818;52.156;5.382;2024-01-16T04:15:09;100645.66;;;1.71;100.00
26043;BME280;13818;52.156;5.382;2024-01-16T04:17:36;100643.00;;;1.74;100.00
26043;BME280;13818;52.156;5.382;2024-01-16T04:20:02;100630.63;;;1.81;100.00
26043;BME280;13818;52.156;5.382;2024-01-16T04:22:30;100644.66;;;1.80;100.00
26043;BME280;13818;52.156;5.382;2024-01-16T04:24:58;100640.25;;;1.82;100.00
26043;BME280;13818;52.156;5.382;2024-01-16T04:27:25;100642.06;;;1.78;100.00
26043;BME280;13818;52.156;5.382;2024-01-16T04:29:51;100634.03;;;1.88;100.00
26043;BME280;13818;52.156;5.382;2024-01-16T04:32:18;100632.22;;;1.94;100.00
26043;BME280;13818;52.156;5.382;2024-01-16T04:34:44;100628.00;;;1.84;100.00
26043;BME280;13818;52.156;5.382;2024-01-16T04:37:11;100641.97;;;1.85;100.00
26043;BME280;13818;52.156;5.382;2024-01-16T04:39:37;100646.34;;;1.86;100.00
26043;BME280;13818;52.156;5.382;2024-01-16T04:42:05;100646.50;;;1.73;100.00
26043;BME280;13818;52.156;5.382;2024-01-16T04:44:32;100643.78;;;1.81;100.00
26043;BME280;13818;52.156;5.382;2024-01-16T04:46:58;100647.34;;;1.77;100.00
26043;BME280;13818;52.156;5.382;2024-01-16T04:49:25;100655.31;;;1.71;100.00
26043;BME280;13818;52.156;5.382;2024-01-16T04:51:51;100651.06;;;1.57;100.00
26043;BME280;13818;52.156;5.382;2024-01-16T04:54:17;100642.91;;;1.79;100.00
26043;BME280;13818;52.156;5.382;2024-01-16T04:56:44;100637.47;;;1.94;100.00
26043;BME280;13818;52.156;5.382;2024-01-16T04:59:12;100632.34;;;1.87;100.00
26043;BME280;13818;52.156;5.382;2024-01-16T05:01:38;100634.94;;;1.88;100.00
26043;BME280;13818;52.156;5.382;2024-01-16T05:04:05;100636.72;;;1.85;100.00
26043;BME280;13818;52.156;5.382;2024-01-16T05:06:33;100624.25;;;1.99;100.00
26043;BME280;13818;52.156;5.382;2024-01-16T05:08:59;100626.16;;;1.88;100.00
26043;BME280;13818;52.156;5.382;2024-01-16T05:11:26;100615.53;;;1.97;100.00
26043;BME280;13818;52.156;5.382;2024-01-16T05:13:52;100613.06;;;1.85;100.00
26043;BME280;13818;52.156;5.382;2024-01-16T05:16:24;100612.22;;;1.84;100.00
26043;BME280;13818;52.156;5.382;2024-01-16T05:18:51;100601.63;;;1.89;100.00
26043;BME280;13818;52.156;5.382;2024-01-16T05:21:17;100594.66;;;1.86;100.00
26043;BME280;13818;52.156;5.382;2024-01-16T05:23:43;100599.88;;;1.88;100.00
26043;BME280;13818;52.156;5.382;2024-01-16T05:26:10;100588.66;;;1.76;100.00
26043;BME280;13818;52.156;5.382;2024-01-16T05:28:36;100580.69;;;1.83;100.00
26043;BME280;13818;52.156;5.382;2024-01-16T05:31:04;100584.38;;;1.69;100.00
26043;BME280;13818;52.156;5.382;2024-01-16T05:33:32;100581.84;;;1.60;100.00
26043;BME280;13818;52.156;5.382;2024-01-16T05:35:59;100582.56;;;1.74;100.00
26043;BME280;13818;52.156;5.382;2024-01-16T05:38:25;100584.09;;;1.88;100.00
26043;BME280;13818;52.156;5.382;2024-01-16T05:40:52;100580.59;;;1.89;100.00
26043;BME280;13818;52.156;5.382;2024-01-16T05:43:18;100580.56;;;1.92;100.00
26043;BME280;13818;52.156;5.382;2024-01-16T05:45:45;100577.09;;;1.88;100.00
26043;BME280;13818;52.156;5.382;2024-01-16T05:48:11;100571.06;;;1.82;100.00
26043;BME280;13818;52.156;5.382;2024-01-16T05:50:39;100577.06;;;1.90;100.00
26043;BME280;13818;52.156;5.382;2024-01-16T05:53:07;100572.81;;;1.81;100.00
26043;BME280;13818;52.156;5.382;2024-01-16T05:55:33;100580.84;;;1.72;100.00
26043;BME280;13818;52.156;5.382;2024-01-16T05:58:02;100566.88;;;1.68;100.00
26043;BME280;13818;52.156;5.382;2024-01-16T06:00:28;100571.25;;;1.68;100.00
26043;BME280;13818;52.156;5.382;2024-01-16T06:02:56;100573.97;;;1.60;100.00
26043;BME280;13818;52.156;5.382;2024-01-16T06:05:22;100572.13;;;1.68;100.00
26043;BME280;13818;52.156;5.382;2024-01-16T06:07:52;100573.06;;;1.62;100.00
26043;BME280;13818;52.156;5.382;2024-01-16T06:10:18;100564.16;;;1.74;100.00
26043;BME280;13818;52.156;5.382;2024-01-16T06:12:45;100562.63;;;1.59;100.00
26043;BME280;13818;52.156;5.382;2024-01-16T06:15:11;100567.00;;;1.57;100.00
26043;BME280;13818;52.156;5.382;2024-01-16T06:17:38;100567.81;;;1.64;100.00
26043;BME280;13818;52.156;5.382;2024-01-16T06:20:05;100575.75;;;1.59;100.00
26043;BME280;13818;52.156;5.382;2024-01-16T06:22:32;100575.78;;;1.56;100.00
26043;BME280;13818;52.156;5.382;2024-01-16T06:25:00;100580.97;;;1.61;100.00
26043;BME280;13818;52.156;5.382;2024-01-16T06:27:27;100581.00;;;1.59;100.00
26043;BME280;13818;52.156;5.382;2024-01-16T06:29:53;100590.94;;;1.36;100.00
26043;BME280;13818;52.156;5.382;2024-01-16T06:32:20;100596.97;;;1.42;100.00
26043;BME280;13818;52.156;5.382;2024-01-16T06:34:46;100594.41;;;1.38;100.00
26043;BME280;13818;52.156;5.382;2024-01-16T06:37:13;100597.97;;;1.32;100.00
26043;BME280;13818;52.156;5.382;2024-01-16T06:39:39;100586.63;;;1.28;100.00
26043;BME280;13818;52.156;5.382;2024-01-16T06:42:07;100598.09;;;1.20;100.00
26043;BME280;13818;52.156;5.382;2024-01-16T06:44:34;100586.69;;;1.22;100.00
26043;BME280;13818;52.156;5.382;2024-01-16T06:47:00;100593.69;;;1.23;100.00
26043;BME280;13818;52.156;5.382;2024-01-16T06:49:27;100588.44;;;1.25;100.00
26043;BME280;13818;52.156;5.382;2024-01-16T06:51:53;100591.81;;;1.36;100.00
26043;BME280;13818;52.156;5.382;2024-01-16T06:54:20;100586.47;;;1.42;100.00
26043;BME280;13818;52.156;5.382;2024-01-16T06:56:48;100575.09;;;1.42;100.00
26043;BME280;13818;52.156;5.382;2024-01-16T06:59:16;100581.09;;;1.52;100.00
26043;BME280;13818;52.156;5.382;2024-01-16T07:01:44;100578.53;;;1.47;100.00
26043;BME280;13818;52.156;5.382;2024-01-16T07:04:11;100585.47;;;1.53;100.00
26043;BME280;13818;52.156;5.382;2024-01-16T07:06:39;100589.75;;;1.61;100.00
26043;BME280;13818;52.156;5.382;2024-01-16T07:09:06;100589.66;;;1.66;100.00
26043;BME280;13818;52.156;5.382;2024-01-16T07:11:31;100595.78;;;1.68;100.00
26043;BME280;13818;52.156;5.382;2024-01-16T07:13:58;100590.44;;;1.74;100.00
26043;BME280;13818;52.156;5.382;2024-01-16T07:16:25;100595.59;;;1.82;100.00
26043;BME280;13818;52.156;5.382;2024-01-16T07:18:52;100592.78;;;1.94;100.00
26043;BME280;13818;52.156;5.382;2024-01-16T07:21:20;100602.50;;;1.89;100.00
26043;BME280;13818;52.156;5.382;2024-01-16T07:23:47;100594.53;;;1.95;100.00
26043;BME280;13818;52.156;5.382;2024-01-16T07:26:14;100598.78;;;2.03;100.00
26043;BME280;13818;52.156;5.382;2024-01-16T07:28:41;100598.78;;;2.04;100.00
26043;BME280;13818;52.156;5.382;2024-01-16T07:31:09;100604.06;;;2.01;100.00
26043;BME280;13818;52.156;5.382;2024-01-16T07:33:38;100609.16;;;2.14;100.00
26043;BME280;13818;52.156;5.382;2024-01-16T07:36:05;100600.31;;;2.18;100.00
26043;BME280;13818;52.156;5.382;2024-01-16T07:38:32;100601.97;;;2.25;100.00
26043;BME280;13818;52.156;5.382;2024-01-16T07:40:59;100608.19;;;2.19;100.00
26043;BME280;13818;52.156;5.382;2024-01-16T07:43:25;100612.53;;;2.23;100.00
26043;BME280;13818;52.156;5.382;2024-01-16T07:45:52;100614.06;;;2.37;100.00
26043;BME280;13818;52.156;5.382;2024-01-16T07:48:18;100613.16;;;2.38;100.00
26043;BME280;13818;52.156;5.382;2024-01-16T07:50:46;100615.00;;;2.33;100.00
26043;BME280;13818;52.156;5.382;2024-01-16T07:53:12;100618.69;;;2.19;100.00
26043;BME280;13818;52.156;5.382;2024-01-16T07:55:39;100616.28;;;2.05;100.00
26043;BME280;13818;52.156;5.382;2024-01-16T07:58:06;100612.53;;;2.23;100.00
26043;BME280;13818;52.156;5.382;2024-01-16T08:00:32;100624.75;;;2.26;100.00
26043;BME280;13818;52.156;5.382;2024-01-16T08:02:58;100620.19;;;2.37;100.00
26043;BME280;13818;52.156;5.382;2024-01-16T08:05:25;100619.31;;;2.38;100.00
26043;BME280;13818;52.156;5.382;2024-01-16T08:07:54;100611.31;;;2.43;100.00
26043;BME280;13818;52.156;5.382;2024-01-16T08:10:20;100615.06;;;2.30;100.00
26043;BME280;13818;52.156;5.382;2024-01-16T08:12:47;100620.19;;;2.36;100.00
26043;BME280;13818;52.156;5.382;2024-01-16T08:15:14;100619.41;;;2.31;100.00
26043;BME280;13818;52.156;5.382;2024-01-16T08:17:40;100627.22;;;2.35;100.00
26043;BME280;13818;52.156;5.382;2024-01-16T08:20:08;100614.06;;;2.38;100.00
26043;BME280;13818;52.156;5.382;2024-01-16T08:22:35;100610.59;;;2.35;100.00
26043;BME280;13818;52.156;5.382;2024-01-16T08:25:04;100614.91;;;2.39;100.00
26043;BME280;13818;52.156;5.382;2024-01-16T08:27:31;100613.22;;;2.35;100.00
26043;BME280;13818;52.156;5.382;2024-01-16T08:29:58;100615.09;;;2.26;100.00
26043;BME280;13818;52.156;5.382;2024-01-16T08:32:24;100609.94;;;2.19;100.00
26043;BME280;13818;52.156;5.382;2024-01-16T08:34:51;100610.72;;;2.27;100.00
26043;BME280;13818;52.156;5.382;2024-01-16T08:37:17;100602.75;;;2.32;100.00
26043;BME280;13818;52.156;5.382;2024-01-16T08:39:44;100612.25;;;2.40;100.00
26043;BME280;13818;52.156;5.382;2024-01-16T08:42:11;100616.00;;;2.24;100.00
26043;BME280;13818;52.156;5.382;2024-01-16T08:44:38;100611.47;;;2.34;100.00
26043;BME280;13818;52.156;5.382;2024-01-16T08:47:07;100613.34;;;2.27;100.00
26043;BME280;13818;52.156;5.382;2024-01-16T08:49:33;100616.78;;;2.32;100.00
26043;BME280;13818;52.156;5.382;2024-01-16T08:52:00;100597.34;;;2.39;100.00
26043;BME280;13818;52.156;5.382;2024-01-16T08:54:27;100600.06;;;2.33;100.00
26043;BME280;13818;52.156;5.382;2024-01-16T08:56:54;100606.16;;;2.38;100.00
26043;BME280;13818;52.156;5.382;2024-01-16T08:59:23;100610.31;;;2.52;100.00
26043;BME280;13818;52.156;5.382;2024-01-16T09:01:49;100606.06;;;2.43;100.00
26043;BME280;13818;52.156;5.382;2024-01-16T09:04:17;100611.28;;;2.46;100.00
26043;BME280;13818;52.156;5.382;2024-01-16T09:06:44;100604.22;;;2.48;100.00
26043;BME280;13818;52.156;5.382;2024-01-16T09:09:10;100607.03;;;2.36;100.00
26043;BME280;13818;52.156;5.382;2024-01-16T09:11:37;100611.19;;;2.51;100.00
26043;BME280;13818;52.156;5.382;2024-01-16T09:14:04;100610.19;;;2.59;100.00
26043;BME280;13818;52.156;5.382;2024-01-16T09:16:32;100607.38;;;2.70;100.00
26043;BME280;13818;52.156;5.382;2024-01-16T09:18:58;100605.72;;;2.63;100.00
26043;BME280;13818;52.156;5.382;2024-01-16T09:21:25;100604.66;;;2.73;100.00
26043;BME280;13818;52.156;5.382;2024-01-16T09:23:51;100603.03;;;2.68;100.00
26043;BME280;13818;52.156;5.382;2024-01-16T09:26:18;100610.34;;;2.50;100.00
26043;BME280;13818;52.156;5.382;2024-01-16T09:28:44;100603.44;;;2.43;100.00
26043;BME280;13818;52.156;5.382;2024-01-16T09:31:11;100601.91;;;2.30;100.00
26043;BME280;13818;52.156;5.382;2024-01-16T09:33:38;100611.44;;;2.35;100.00
26043;BME280;13818;52.156;5.382;2024-01-16T09:36:05;100613.97;;;2.43;100.00
26043;BME280;13818;52.156;5.382;2024-01-16T09:38:32;100610.97;;;2.65;100.00
26043;BME280;13818;52.156;5.382;2024-01-16T09:40:58;100608.84;;;2.87;100.00
26043;BME280;13818;52.156;5.382;2024-01-16T09:43:26;100610.50;;;2.91;100.00
26043;BME280;13818;52.156;5.382;2024-01-16T09:45:54;100602.50;;;2.97;100.00
26043;BME280;13818;52.156;5.382;2024-01-16T09:48:21;100602.44;;;3.02;100.00
26043;BME280;13818;52.156;5.382;2024-01-16T09:50:50;100602.69;;;2.88;100.00
26043;BME280;13818;52.156;5.382;2024-01-16T09:53:17;100608.66;;;2.96;100.00
26043;BME280;13818;52.156;5.382;2024-01-16T09:55:43;100597.13;;;3.03;100.00
26043;BME280;13818;52.156;5.382;2024-01-16T09:58:12;100597.81;;;3.13;100.00
26043;BME280;13818;52.156;5.382;2024-01-16T10:00:40;100596.94;;;3.14;100.00
26043;BME280;13818;52.156;5.382;2024-01-16T10:03:10;100596.16;;;3.07;100.00
26043;BME280;13818;52.156;5.382;2024-01-16T10:05:38;100589.06;;;3.11;100.00
26043;BME280;13818;52.156;5.382;2024-01-16T10:08:06;100588.94;;;3.17;100.00
26043;BME280;13818;52.156;5.382;2024-01-16T10:10:33;100597.22;;;3.42;100.00
26043;BME280;13818;52.156;5.382;2024-01-16T10:13:00;100582.19;;;3.49;100.00
26043;BME280;13818;52.156;5.382;2024-01-16T10:15:26;100579.09;;;3.27;100.00
26043;BME280;13818;52.156;5.382;2024-01-16T10:17:53;100570.31;;;3.28;100.00
26043;BME280;13818;52.156;5.382;2024-01-16T10:20:31;100571.91;;;3.37;100.00
26043;BME280;13818;52.156;5.382;2024-01-16T10:22:58;100576.63;;;3.62;100.00
26043;BME280;13818;52.156;5.382;2024-01-16T10:25:26;100579.13;;;3.68;100.00
26043;BME280;13818;52.156;5.382;2024-01-16T10:28:03;100577.38;;;3.68;100.00
26043;BME280;13818;52.156;5.382;2024-01-16T10:30:30;100570.66;;;3.53;100.00
26043;BME280;13818;52.156;5.382;2024-01-16T10:33:12;100559.72;;;3.72;100.00
26043;BME280;13818;52.156;5.382;2024-01-16T10:35:39;100567.53;;;3.77;100.00
26043;BME280;13818;52.156;5.382;2024-01-16T10:38:05;100571.84;;;3.79;100.00
26043;BME280;13818;52.156;5.382;2024-01-16T10:40:33;100561.25;;;3.81;100.00
26043;BME280;13818;52.156;5.382;2024-01-16T10:43:01;100566.03;;;4.04;100.00
26043;BME280;13818;52.156;5.382;2024-01-16T10:45:28;100566.75;;;4.11;100.00
26043;BME280;13818;52.156;5.382;2024-01-16T10:48:00;100567.09;;;4.33;100.00
26043;BME280;13818;52.156;5.382;2024-01-16T10:50:28;100575.50;;;4.13;100.00
26043;BME280;13818;52.156;5.382;2024-01-16T10:52:54;100584.72;;;4.31;100.00
26043;BME280;13818;52.156;5.382;2024-01-16T10:55:22;100583.59;;;4.41;100.00
26043;BME280;13818;52.156;5.382;2024-01-16T10:57:50;100583.59;;;4.43;100.00
26043;BME280;13818;52.156;5.382;2024-01-16T11:00:18;100571.72;;;4.23;100.00
26043;BME280;13818;52.156;5.382;2024-01-16T11:02:49;100568.09;;;4.27;100.00
26043;BME280;13818;52.156;5.382;2024-01-16T11:05:17;100561.78;;;4.34;100.00
26043;BME280;13818;52.156;5.382;2024-01-16T11:07:44;100567.00;;;4.36;100.00
26043;BME280;13818;52.156;5.382;2024-01-16T11:10:11;100558.69;;;4.17;100.00
26043;BME280;13818;52.156;5.382;2024-01-16T11:12:38;100559.59;;;4.16;100.00
26043;BME280;13818;52.156;5.382;2024-01-16T11:15:08;100547.91;;;4.26;100.00
26043;BME280;13818;52.156;5.382;2024-01-16T11:17:38;100544.81;;;4.45;100.00
26043;BME280;13818;52.156;5.382;2024-01-16T11:20:06;100551.72;;;4.50;100.00
26043;BME280;13818;52.156;5.382;2024-01-16T11:22:37;100546.13;;;4.63;100.00
26043;BME280;13818;52.156;5.382;2024-01-16T11:25:08;100544.41;;;4.60;100.00
26043;BME280;13818;52.156;5.382;2024-01-16T11:27:35;100535.72;;;4.55;100.00
26043;BME280;13818;52.156;5.382;2024-01-16T11:30:02;100539.09;;;4.62;100.00
26043;BME280;13818;52.156;5.382;2024-01-16T11:32:37;100536.00;;;4.79;100.00
26043;BME280;13818;52.156;5.382;2024-01-16T11:35:06;100525.88;;;4.95;100.00
26043;BME280;13818;52.156;5.382;2024-01-16T11:37:33;100519.78;;;4.93;100.00
26043;BME280;13818;52.156;5.382;2024-01-16T11:40:22;100517.56;;;5.09;100.00
26043;BME280;13818;52.156;5.382;2024-01-16T11:42:50;100517.19;;;4.91;100.00
26043;BME280;13818;52.156;5.382;2024-01-16T11:48:11;100518.81;;;4.97;100.00
26043;BME280;13818;52.156;5.382;2024-01-16T11:50:39;100508.00;;;5.04;100.00
26043;BME280;13818;52.156;5.382;2024-01-16T11:53:06;100515.06;;;5.04;100.00
26043;BME280;13818;52.156;5.382;2024-01-16T11:55:34;100510.66;;;5.04;100.00
26043;BME280;13818;52.156;5.382;2024-01-16T11:58:24;100509.03;;;4.99;100.00
26043;BME280;13818;52.156;5.382;2024-01-16T12:00:53;100511.66;;;5.30;100.00
26043;BME280;13818;52.156;5.382;2024-01-16T12:03:23;100511.34;;;5.11;100.00
26043;BME280;13818;52.156;5.382;2024-01-16T12:05:55;100509.59;;;5.10;100.00
26043;BME280;13818;52.156;5.382;2024-01-16T12:08:22;100511.94;;;4.89;100.00
26043;BME280;13818;52.156;5.382;2024-01-16T12:10:48;100513.19;;;5.08;100.00
26043;BME280;13818;52.156;5.382;2024-01-16T12:13:15;100504.75;;;5.26;100.00
26043;BME280;13818;52.156;5.382;2024-01-16T12:15:41;100497.94;;;5.17;100.00
26043;BME280;13818;52.156;5.382;2024-01-16T12:18:08;100492.06;;;5.08;100.00
26043;BME280;13818;52.156;5.382;2024-01-16T12:20:36;100495.94;;;4.94;100.00
26043;BME280;13818;52.156;5.382;2024-01-16T12:23:06;100492.00;;;5.11;100.00
26043;BME280;13818;52.156;5.382;2024-01-16T12:25:33;100494.06;;;5.29;100.00
26043;BME280;13818;52.156;5.382;2024-01-16T12:28:01;100484.44;;;5.27;100.00
26043;BME280;13818;52.156;5.382;2024-01-16T12:30:30;100492.06;;;5.37;100.00
26043;BME280;13818;52.156;5.382;2024-01-16T12:33:04;100492.03;;;5.39;100.00
26043;BME280;13818;52.156;5.382;2024-01-16T12:35:33;100488.38;;;5.43;100.00
26043;BME280;13818;52.156;5.382;2024-01-16T12:38:02;100484.31;;;5.31;100.00
26043;BME280;13818;52.156;5.382;2024-01-16T12:40:30;100484.63;;;5.20;100.00
26043;BME280;13818;52.156;5.382;2024-01-16T12:42:57;100478.19;;;5.31;100.00
26043;BME280;13818;52.156;5.382;2024-01-16T12:45:24;100479.47;;;5.46;100.00
26043;BME280;13818;52.156;5.382;2024-01-16T12:47:51;100483.19;;;5.68;100.00
26043;BME280;13818;52.156;5.382;2024-01-16T12:50:22;100486.13;;;5.59;100.00
26043;BME280;13818;52.156;5.382;2024-01-16T12:52:49;100480.25;;;5.49;100.00